Time;durP1;ratioP1;P1;durP2;ratioP2;P2;SDS_P1;SDS_P2;PMS_P1;PMS_P2;Temp;Humidity;BMP_temperature;BMP_pressure;BME280_temperature;BME280_humidity;BME280_pressure;Samples;Min_cycle;Max_cycle;Signal;HPM_P1;HPM_P2
2022/04/12 00:00:49;;;;;;;3.53;2.38;;;12.10;87.50;;;;;;5054747;28;20045;-78
2022/04/12 00:03:17;;;;;;;3.53;2.70;;;12.10;87.70;;;;;;5081406;28;20056;-78
2022/04/12 00:05:44;;;;;;;3.25;2.22;;;12.10;88.70;;;;;;5063525;28;20044;-77
2022/04/12 00:08:12;;;;;;;4.95;2.10;;;12.10;88.30;;;;;;5059501;28;20383;-78
2022/04/12 00:10:40;;;;;;;4.97;2.47;;;12.10;88.50;;;;;;5076060;28;20044;-77
2022/04/12 00:13:08;;;;;;;4.05;1.92;;;12.10;88.40;;;;;;5035206;28;20094;-77
2022/04/12 00:15:35;;;;;;;3.42;2.42;;;12.10;88.50;;;;;;5053352;28;20071;-78
2022/04/12 00:20:49;;;;;;;4.35;2.15;;;12.10;88.70;;;;;;5052599;28;20047;-78
2022/04/12 00:23:17;;;;;;;4.45;2.13;;;12.10;89.10;;;;;;5071110;28;20448;-78
2022/04/12 00:25:45;;;;;;;4.18;1.88;;;12.00;89.10;;;;;;5062598;28;20045;-77
2022/04/12 00:28:14;;;;;;;2.90;1.90;;;12.00;89.20;;;;;;5058414;28;20544;-77
2022/04/12 00:30:43;;;;;;;2.95;1.85;;;12.00;89.20;;;;;;5059699;28;20119;-78
2022/04/12 00:33:10;;;;;;;5.18;2.05;;;12.00;89.50;;;;;;5074479;28;20060;-78
2022/04/12 00:35:38;;;;;;;5.43;2.90;;;12.00;89.50;;;;;;5053906;28;20047;-78
2022/04/12 00:38:17;;;;;;;6.20;2.00;;;12.00;89.20;;;;;;5044961;28;20383;-78
2022/04/12 00:40:46;;;;;;;2.80;2.05;;;12.00;89.00;;;;;;5058829;28;20039;-78
2022/04/12 00:43:16;;;;;;;5.13;3.15;;;12.00;89.10;;;;;;5084063;28;20060;-77
2022/04/12 00:45:45;;;;;;;5.00;2.53;;;12.00;89.00;;;;;;5048744;28;20051;-78
2022/04/12 00:48:13;;;;;;;8.00;3.03;;;12.00;88.90;;;;;;5070605;28;20040;-78
2022/04/12 00:50:41;;;;;;;10.10;3.33;;;12.00;88.80;;;;;;5066415;28;20040;-78
2022/04/12 00:53:09;;;;;;;6.53;3.03;;;12.10;88.80;;;;;;5075263;28;20578;-78
2022/04/12 00:55:37;;;;;;;7.65;3.08;;;12.00;88.60;;;;;;5059602;28;20028;-77
2022/04/12 00:58:07;;;;;;;6.15;2.85;;;12.00;88.70;;;;;;5075725;28;20139;-78
2022/04/12 01:00:35;;;;;;;6.13;3.45;;;12.00;88.80;;;;;;5052738;28;20557;-78
2022/04/12 01:03:04;;;;;;;7.38;3.88;;;12.00;88.60;;;;;;5052934;28;20095;-77
2022/04/12 01:05:32;;;;;;;7.10;3.72;;;12.00;88.50;;;;;;5052979;28;20144;-78
2022/04/12 01:08:01;;;;;;;6.60;3.70;;;12.00;88.50;;;;;;5068741;28;20052;-77
2022/04/12 01:10:32;;;;;;;6.28;3.42;;;11.90;88.90;;;;;;5035290;28;20454;-77
2022/04/12 01:13:01;;;;;;;5.45;3.05;;;12.00;88.90;;;;;;5052522;28;20086;-77
2022/04/12 01:15:28;;;;;;;3.38;2.10;;;11.90;89.00;;;;;;5052985;28;20079;-77
2022/04/12 01:17:57;;;;;;;7.55;2.38;;;11.90;89.20;;;;;;5036206;28;20087;-77
2022/04/12 01:20:29;;;;;;;4.43;2.40;;;11.80;89.40;;;;;;5069266;28;20067;-77
2022/04/12 01:23:12;;;;;;;3.08;2.22;;;11.90;89.40;;;;;;5052711;28;20048;-76
2022/04/12 01:25:40;;;;;;;5.38;3.03;;;11.90;89.40;;;;;;5052796;28;20139;-77
2022/04/12 01:28:10;;;;;;;4.65;2.88;;;11.80;89.40;;;;;;5070587;28;20079;-78
2022/04/12 01:30:38;;;;;;;6.00;3.17;;;11.80;89.30;;;;;;5052584;28;20080;-77
2022/04/12 01:33:06;;;;;;;5.97;3.40;;;11.80;89.40;;;;;;5069338;28;20090;-77
2022/04/12 01:35:35;;;;;;;8.13;3.08;;;11.80;89.60;;;;;;5068741;28;20839;-77
2022/04/12 01:38:03;;;;;;;7.00;2.80;;;11.80;89.70;;;;;;5069002;28;20453;-77
2022/04/12 01:40:31;;;;;;;5.22;3.20;;;11.80;90.00;;;;;;5069927;28;20042;-77
2022/04/12 01:42:58;;;;;;;3.80;2.63;;;11.80;89.90;;;;;;5050640;28;20048;-77
2022/04/12 01:45:26;;;;;;;4.60;2.40;;;11.80;89.90;;;;;;5052311;28;20411;-78
2022/04/12 01:47:55;;;;;;;3.80;2.20;;;11.80;89.90;;;;;;5052191;28;20052;-77
2022/04/12 01:50:23;;;;;;;3.28;2.00;;;11.80;90.00;;;;;;5069072;28;20036;-77
2022/04/12 01:52:50;;;;;;;5.78;2.25;;;11.80;90.20;;;;;;5036187;28;20045;-77
2022/04/12 01:55:18;;;;;;;3.45;1.63;;;11.80;90.30;;;;;;5052368;28;20052;-78
2022/04/12 01:57:45;;;;;;;3.20;2.25;;;11.80;90.50;;;;;;5070051;28;20131;-77
2022/04/12 02:00:13;;;;;;;5.43;1.95;;;11.70;90.60;;;;;;5054471;28;20032;-77
2022/04/12 02:02:41;;;;;;;3.78;1.80;;;11.70;90.80;;;;;;5055670;28;20052;-77
2022/04/12 02:05:09;;;;;;;3.13;1.95;;;11.60;90.90;;;;;;5039244;28;20077;-77
2022/04/12 02:07:37;;;;;;;4.18;1.90;;;11.60;91.10;;;;;;5055911;28;20106;-77
2022/04/12 02:10:05;;;;;;;6.90;1.58;;;11.60;91.30;;;;;;5055636;28;20514;-78
2022/04/12 02:12:33;;;;;;;3.25;1.77;;;11.60;91.30;;;;;;5090028;28;20054;-77
2022/04/12 02:15:00;;;;;;;2.33;1.33;;;11.60;91.40;;;;;;5072389;28;20041;-77
2022/04/12 02:17:28;;;;;;;2.70;1.52;;;11.60;91.40;;;;;;5038590;28;20075;-78
2022/04/12 02:19:56;;;;;;;2.80;1.70;;;11.60;91.40;;;;;;5055804;28;20036;-78
2022/04/12 02:22:24;;;;;;;6.03;2.13;;;11.60;91.20;;;;;;5073273;28;20047;-79
2022/04/12 02:24:51;;;;;;;2.83;1.55;;;11.60;91.00;;;;;;5059402;28;20478;-77
2022/04/12 02:27:19;;;;;;;3.30;1.77;;;11.60;91.00;;;;;;5042253;28;20048;-78
2022/04/12 02:29:46;;;;;;;2.58;1.67;;;11.60;91.20;;;;;;5059104;28;20040;-78
2022/04/12 02:32:14;;;;;;;2.58;1.60;;;11.60;91.30;;;;;;5093703;28;20550;-78
2022/04/12 02:34:42;;;;;;;3.60;1.80;;;11.60;91.40;;;;;;5056860;28;20036;-77
2022/04/12 02:37:10;;;;;;;5.00;1.75;;;11.60;91.40;;;;;;5059111;28;20048;-77
2022/04/12 02:39:37;;;;;;;5.25;1.75;;;11.60;91.30;;;;;;5056791;28;20101;-77
2022/04/12 02:42:06;;;;;;;7.68;2.15;;;11.60;91.30;;;;;;5058646;28;20097;-78
2022/04/12 02:44:34;;;;;;;4.20;1.88;;;11.60;91.30;;;;;;5051043;28;20057;-78
2022/04/12 02:47:01;;;;;;;4.55;2.00;;;11.60;91.40;;;;;;5038680;28;20502;-77
2022/04/12 02:49:29;;;;;;;4.13;2.17;;;11.50;91.50;;;;;;5022904;28;20064;-78
2022/04/12 02:51:57;;;;;;;5.80;2.10;;;11.50;91.60;;;;;;5038692;28;20117;-78
2022/04/12 02:54:24;;;;;;;6.35;3.13;;;11.60;91.50;;;;;;5055076;28;20047;-78
2022/04/12 02:56:52;;;;;;;5.30;3.08;;;11.60;91.50;;;;;;5021932;28;20044;-78
2022/04/12 02:59:19;;;;;;;4.50;2.30;;;11.50;91.50;;;;;;5037242;28;20049;-78
2022/04/12 03:01:47;;;;;;;3.28;1.80;;;11.50;91.50;;;;;;5029054;28;20494;-78
2022/04/12 03:04:14;;;;;;;5.22;2.00;;;11.50;91.60;;;;;;5072139;28;20044;-78
2022/04/12 03:06:42;;;;;;;3.35;2.63;;;11.50;91.60;;;;;;5071792;28;20577;-77
2022/04/12 03:09:10;;;;;;;2.78;1.80;;;11.50;91.60;;;;;;5038584;28;20041;-78
2022/04/12 03:11:39;;;;;;;4.43;2.13;;;11.50;91.60;;;;;;5038360;28;20048;-77
2022/04/12 03:14:08;;;;;;;4.53;2.40;;;11.50;91.70;;;;;;5054621;28;20755;-78
2022/04/12 03:16:35;;;;;;;3.97;1.95;;;11.50;91.70;;;;;;5054481;28;20052;-77
2022/04/12 03:19:03;;;;;;;3.75;2.40;;;11.40;91.80;;;;;;5038266;28;20506;-79
2022/04/12 03:21:30;;;;;;;5.20;2.30;;;11.40;91.90;;;;;;5071555;28;20041;-77
2022/04/12 03:23:58;;;;;;;3.40;2.00;;;11.40;92.00;;;;;;5038571;28;20102;-78
2022/04/12 03:26:26;;;;;;;8.32;1.70;;;11.40;92.10;;;;;;5037770;28;20425;-78
2022/04/12 03:28:53;;;;;;;4.43;1.70;;;11.40;92.20;;;;;;5037643;28;20104;-77
2022/04/12 03:31:22;;;;;;;3.78;2.00;;;11.40;92.40;;;;;;5073027;28;20114;-78
2022/04/12 03:33:49;;;;;;;3.47;1.95;;;11.40;92.40;;;;;;5037396;28;20175;-77
2022/04/12 03:36:17;;;;;;;2.88;1.55;;;11.40;92.50;;;;;;5038479;28;20048;-77
2022/04/12 03:38:48;;;;;;;3.10;1.83;;;11.40;92.50;;;;;;5056862;28;20044;-77
2022/04/12 03:41:22;;;;;;;5.95;1.88;;;11.30;92.60;;;;;;5057440;28;20171;-77
2022/04/12 03:43:51;;;;;;;2.72;1.40;;;11.30;92.70;;;;;;5058177;28;20135;-78
2022/04/12 03:46:19;;;;;;;2.17;1.50;;;11.20;92.80;;;;;;5074158;28;20048;-78
2022/04/12 03:48:46;;;;;;;2.65;1.73;;;11.30;93.00;;;;;;5057458;28;20047;-79
2022/04/12 03:51:16;;;;;;;4.63;1.65;;;11.30;93.00;;;;;;5058035;28;20551;-78
2022/04/12 03:53:43;;;;;;;3.78;1.50;;;11.30;93.10;;;;;;5057137;28;20489;-78
2022/04/12 03:56:11;;;;;;;3.67;1.85;;;11.20;93.10;;;;;;5074165;28;20482;-78
2022/04/12 03:58:39;;;;;;;5.95;2.40;;;11.20;93.10;;;;;;5057385;28;20056;-77
2022/04/12 04:01:07;;;;;;;2.95;1.50;;;11.20;93.20;;;;;;5091674;28;20072;-77
2022/04/12 04:03:35;;;;;;;2.47;1.95;;;11.20;93.20;;;;;;5073808;28;20126;-78
2022/04/12 04:06:03;;;;;;;3.50;1.73;;;11.20;93.30;;;;;;5073574;28;20564;-77
2022/04/12 04:08:31;;;;;;;3.22;2.10;;;11.20;93.40;;;;;;5056532;28;20143;-78
2022/04/12 04:10:58;;;;;;;3.47;2.42;;;11.10;93.40;;;;;;5040692;28;20052;-77
2022/04/12 04:13:29;;;;;;;3.92;1.73;;;11.10;93.50;;;;;;5057168;28;20115;-78
2022/04/12 04:15:57;;;;;;;3.92;1.95;;;11.10;93.50;;;;;;5091972;28;20441;-78
2022/04/12 04:18:26;;;;;;;3.20;1.98;;;11.10;93.60;;;;;;5040213;28;20498;-78
2022/04/12 04:20:54;;;;;;;4.13;1.88;;;11.10;93.60;;;;;;5073510;28;20044;-78
2022/04/12 04:23:22;;;;;;;2.50;1.60;;;11.10;93.70;;;;;;5073493;28;20560;-79
2022/04/12 04:25:50;;;;;;;2.15;1.50;;;11.10;93.70;;;;;;5056832;28;20444;-77
2022/04/12 04:28:21;;;;;;;3.75;2.20;;;11.10;93.80;;;;;;5057037;28;20375;-77
2022/04/12 04:30:50;;;;;;;28.45;4.13;;;11.00;93.90;;;;;;5040084;28;20040;-78
2022/04/12 04:33:19;;;;;;;3.85;2.13;;;11.00;94.00;;;;;;5056776;28;20589;-78
2022/04/12 04:35:48;;;;;;;2.60;1.60;;;11.00;94.00;;;;;;5056801;28;20046;-78
2022/04/12 04:38:16;;;;;;;4.50;2.30;;;11.10;94.00;;;;;;5073262;28;20192;-79
2022/04/12 04:40:44;;;;;;;2.90;1.95;;;11.10;93.80;;;;;;5056367;28;20063;-78
2022/04/12 04:43:12;;;;;;;3.42;1.75;;;11.10;93.60;;;;;;5039784;28;20509;-77
2022/04/12 04:45:39;;;;;;;5.60;3.00;;;11.20;93.60;;;;;;5056458;28;20036;-78
2022/04/12 04:48:07;;;;;;;6.32;2.40;;;11.20;93.50;;;;;;5056676;28;20040;-78
2022/04/12 04:50:35;;;;;;;6.45;3.08;;;11.30;93.30;;;;;;5056113;28;20060;-76
2022/04/12 04:53:04;;;;;;;6.70;2.85;;;11.40;93.10;;;;;;5073205;28;20151;-76
2022/04/12 04:55:37;;;;;;;4.60;2.40;;;11.60;93.00;;;;;;5091597;28;20077;-77
2022/04/12 04:58:05;;;;;;;3.88;2.92;;;11.70;92.80;;;;;;5073206;28;20040;-78
2022/04/12 05:00:34;;;;;;;5.25;3.17;;;11.80;92.70;;;;;;5056258;28;20048;-78
2022/04/12 05:03:03;;;;;;;7.15;3.83;;;11.90;92.40;;;;;;5039714;28;20109;-76
2022/04/12 05:05:31;;;;;;;6.50;4.55;;;12.00;92.20;;;;;;5072928;28;20036;-77
2022/04/12 05:07:59;;;;;;;8.30;3.63;;;12.20;91.90;;;;;;5056774;28;20115;-78
2022/04/12 05:10:29;;;;;;;7.68;3.97;;;12.30;91.70;;;;;;5055946;28;20066;-77
2022/04/12 05:12:58;;;;;;;5.88;3.83;;;12.40;91.50;;;;;;5090906;28;20036;-76
2022/04/12 05:15:27;;;;;;;5.60;3.75;;;12.50;91.40;;;;;;5056343;28;20044;-76
2022/04/12 05:17:56;;;;;;;6.90;3.67;;;12.70;91.30;;;;;;5056422;28;20048;-76
2022/04/12 05:20:25;;;;;;;9.55;4.10;;;12.80;91.30;;;;;;5053790;28;20054;-77
2022/04/12 05:22:53;;;;;;;7.13;3.20;;;13.00;91.20;;;;;;5073555;28;20048;-76
2022/04/12 05:25:22;;;;;;;7.15;4.15;;;13.20;91.00;;;;;;5056474;28;20048;-76
2022/04/12 05:27:50;;;;;;;8.73;4.25;;;13.40;90.90;;;;;;5069343;28;20147;-78
2022/04/12 05:30:18;;;;;;;9.93;4.40;;;13.50;90.70;;;;;;5077959;28;20044;-77
2022/04/12 05:32:46;;;;;;;7.65;4.25;;;13.70;90.70;;;;;;5089798;28;20058;-76
2022/04/12 05:35:14;;;;;;;7.38;4.55;;;13.80;90.70;;;;;;5049025;28;20046;-77
2022/04/12 05:37:46;;;;;;;7.85;3.72;;;14.00;90.60;;;;;;5074214;28;20036;-76
2022/04/12 05:40:15;;;;;;;6.70;3.28;;;14.20;90.60;;;;;;5051845;28;20043;-76
2022/04/12 05:42:43;;;;;;;5.85;3.47;;;14.50;90.60;;;;;;5058563;28;20040;-76
2022/04/12 05:45:12;;;;;;;8.27;3.38;;;14.60;90.60;;;;;;5062660;28;20504;-76
2022/04/12 05:47:50;;;;;;;4.93;3.38;;;14.80;90.50;;;;;;5068855;28;20051;-76
2022/04/12 05:50:26;;;;;;;5.43;3.05;;;15.00;90.50;;;;;;5087381;28;20043;-77
2022/04/12 05:52:54;;;;;;;11.63;4.68;;;15.20;90.40;;;;;;5067738;28;20036;-76
2022/04/12 05:55:24;;;;;;;9.82;4.72;;;15.40;90.30;;;;;;5083545;28;20040;-82
2022/04/12 05:58:03;;;;;;;8.93;4.80;;;15.60;90.30;;;;;;5082768;28;20040;-76
2022/04/12 06:00:32;;;;;;;9.93;4.78;;;15.70;90.20;;;;;;5055819;28;20062;-76
2022/04/12 06:03:02;;;;;;;7.65;4.32;;;15.90;90.10;;;;;;5105732;28;20408;-78
2022/04/12 06:05:32;;;;;;;5.28;3.08;;;16.10;90.10;;;;;;5055152;28;20051;-76
2022/04/12 06:08:00;;;;;;;4.85;2.60;;;16.30;89.30;;;;;;5054418;28;20446;-77
2022/04/12 06:10:28;;;;;;;3.72;1.85;;;16.50;88.80;;;;;;5095689;28;20048;-73
2022/04/12 06:12:58;;;;;;;3.70;2.00;;;16.60;88.20;;;;;;5073590;28;20509;-76
2022/04/12 06:15:26;;;;;;;4.50;2.03;;;16.80;87.80;;;;;;5071292;28;20050;-78
2022/04/12 06:17:54;;;;;;;5.68;2.22;;;16.90;87.10;;;;;;5058427;28;20152;-79
2022/04/12 06:20:21;;;;;;;4.18;2.25;;;17.00;87.00;;;;;;5050380;28;20115;-75
2022/04/12 06:22:49;;;;;;;3.25;2.00;;;17.10;86.90;;;;;;5067773;28;20574;-80
2022/04/12 06:25:19;;;;;;;3.25;1.67;;;17.30;86.70;;;;;;5078570;28;20054;-76
2022/04/12 06:27:52;;;;;;;2.72;1.67;;;17.40;86.20;;;;;;5076605;28;20044;-76
2022/04/12 06:30:25;;;;;;;2.40;1.65;;;17.60;86.30;;;;;;5059625;28;20142;-76
2022/04/12 06:32:54;;;;;;;2.53;1.67;;;17.70;85.90;;;;;;5076523;28;20436;-76
2022/04/12 06:35:22;;;;;;;2.28;1.40;;;17.80;85.40;;;;;;5059678;28;20074;-76
2022/04/12 06:37:53;;;;;;;5.43;2.20;;;17.90;84.90;;;;;;5076099;28;20040;-76
2022/04/12 06:40:22;;;;;;;2.95;1.52;;;18.10;84.30;;;;;;5059926;28;20049;-76
2022/04/12 06:42:51;;;;;;;6.55;1.67;;;18.20;84.20;;;;;;5094589;28;20115;-76
2022/04/12 06:45:19;;;;;;;2.10;1.55;;;18.30;84.70;;;;;;5043308;28;20386;-76
2022/04/12 06:47:58;;;;;;;3.58;1.80;;;18.40;83.60;;;;;;5058964;28;20051;-76
2022/04/12 06:50:27;;;;;;;6.82;1.70;;;18.50;83.30;;;;;;5059366;28;20460;-76
2022/04/12 06:52:56;;;;;;;4.13;2.10;;;18.60;83.10;;;;;;5076026;28;20044;-76
2022/04/12 06:55:24;;;;;;;3.42;1.92;;;18.70;82.80;;;;;;5076116;28;20109;-75
2022/04/12 06:57:52;;;;;;;4.82;2.30;;;18.80;82.90;;;;;;5076512;28;20036;-75
2022/04/12 07:00:20;;;;;;;3.35;2.45;;;18.90;82.10;;;;;;5058836;28;20056;-76
2022/04/12 07:02:48;;;;;;;4.88;2.67;;;19.00;82.30;;;;;;5059238;28;20055;-75
2022/04/12 07:05:16;;;;;;;4.38;2.45;;;19.00;81.80;;;;;;5043569;28;20566;-77
2022/04/12 07:07:44;;;;;;;9.48;2.72;;;19.10;81.90;;;;;;5093278;28;20058;-75
2022/04/12 07:10:15;;;;;;;5.05;1.85;;;19.00;81.20;;;;;;5041829;28;20040;-76
2022/04/12 07:12:43;;;;;;;2.13;1.40;;;19.10;81.00;;;;;;5076474;28;20044;-75
2022/04/12 07:15:13;;;;;;;2.45;1.30;;;19.20;81.00;;;;;;5076391;28;20075;-76
2022/04/12 07:17:41;;;;;;;3.42;1.58;;;19.30;80.80;;;;;;5043101;28;20781;-76
2022/04/12 07:20:09;;;;;;;2.40;1.30;;;19.40;80.80;;;;;;5059746;28;20074;-77
2022/04/12 07:22:37;;;;;;;2.45;1.58;;;19.40;79.80;;;;;;5042755;28;20040;-76
2022/04/12 07:25:05;;;;;;;4.60;2.03;;;19.50;79.80;;;;;;5075677;28;20101;-76
2022/04/12 07:27:34;;;;;;;4.28;1.55;;;19.60;79.50;;;;;;5093976;28;20055;-78
2022/04/12 07:30:04;;;;;;;4.47;1.95;;;19.60;79.10;;;;;;5059070;28;20044;-78
2022/04/12 07:32:32;;;;;;;4.15;2.42;;;19.70;79.20;;;;;;5059750;28;20040;-76
2022/04/12 07:35:00;;;;;;;6.38;2.05;;;19.70;78.40;;;;;;5076229;28;20047;-76
2022/04/12 07:37:28;;;;;;;8.45;2.10;;;19.70;78.60;;;;;;5043045;28;20059;-76
2022/04/12 07:39:56;;;;;;;3.83;1.73;;;19.80;78.50;;;;;;5075923;28;20538;-77
2022/04/12 07:42:24;;;;;;;3.05;1.63;;;19.90;78.20;;;;;;5093897;28;20409;-83
2022/04/12 07:44:51;;;;;;;3.35;1.95;;;19.90;76.40;;;;;;5076288;28;20051;-76
2022/04/12 07:47:19;;;;;;;4.22;1.60;;;19.90;75.80;;;;;;5076367;28;20390;-76
2022/04/12 07:49:47;;;;;;;3.30;1.40;;;19.90;76.90;;;;;;5075398;28;20052;-76
2022/04/12 07:52:15;;;;;;;3.83;1.95;;;20.00;75.80;;;;;;5076036;28;20127;-76
2022/04/12 07:54:42;;;;;;;3.33;1.80;;;20.00;74.80;;;;;;5058982;28;20040;-75
2022/04/12 07:57:10;;;;;;;2.47;1.27;;;20.10;75.20;;;;;;5041791;28;20051;-76
2022/04/12 07:59:38;;;;;;;2.83;1.23;;;20.20;74.30;;;;;;5042569;28;20048;-77
2022/04/12 08:02:05;;;;;;;5.07;1.35;;;20.10;74.60;;;;;;5076076;28;20094;-76
2022/04/12 08:04:34;;;;;;;3.60;1.60;;;20.20;73.50;;;;;;5058737;28;20528;-72
2022/04/12 08:07:01;;;;;;;2.47;1.27;;;20.30;74.30;;;;;;5091766;28;20068;-72
2022/04/12 08:09:29;;;;;;;2.67;1.20;;;20.30;74.40;;;;;;5091923;28;20067;-71
2022/04/12 08:11:57;;;;;;;2.75;1.70;;;20.50;74.50;;;;;;5061718;28;20036;-72
2022/04/12 08:14:24;;;;;;;2.22;1.17;;;20.50;72.10;;;;;;5065937;28;20402;-71
2022/04/12 08:16:52;;;;;;;1.45;0.98;;;20.50;71.10;;;;;;5066566;28;20047;-72
2022/04/12 08:19:20;;;;;;;1.85;1.00;;;20.50;71.60;;;;;;5101342;28;20497;-71
2022/04/12 08:21:48;;;;;;;2.08;1.13;;;20.50;71.60;;;;;;5082178;28;20395;-73
2022/04/12 08:24:15;;;;;;;2.28;1.35;;;20.40;70.90;;;;;;5036087;28;20779;-71
2022/04/12 08:26:43;;;;;;;1.08;0.90;;;20.40;70.70;;;;;;5052922;28;20049;-73
2022/04/12 08:29:10;;;;;;;5.00;1.30;;;20.40;69.20;;;;;;5053053;28;20047;-72
2022/04/12 08:31:39;;;;;;;1.13;0.85;;;20.20;70.50;;;;;;5053390;28;20048;-72
2022/04/12 08:34:07;;;;;;;3.50;1.10;;;20.00;69.80;;;;;;5071093;28;20098;-71
2022/04/12 08:36:34;;;;;;;1.05;0.90;;;20.00;70.00;;;;;;5035862;28;20143;-72
2022/04/12 08:39:03;;;;;;;3.17;0.80;;;19.90;68.80;;;;;;5053219;28;20049;-73
2022/04/12 08:41:34;;;;;;;1.42;1.00;;;19.90;66.80;;;;;;5071225;28;20041;-74
2022/04/12 08:44:02;;;;;;;2.03;1.10;;;19.90;68.10;;;;;;5053516;28;20114;-72
2022/04/12 08:46:29;;;;;;;1.63;0.90;;;20.00;69.20;;;;;;5052905;28;20371;-71
2022/04/12 08:48:58;;;;;;;3.00;1.27;;;19.90;69.30;;;;;;5070710;28;20044;-71
2022/04/12 08:51:27;;;;;;;1.52;0.98;;;20.10;69.10;;;;;;5053015;28;20040;-72
2022/04/12 08:53:57;;;;;;;2.20;1.10;;;19.90;69.80;;;;;;5052267;28;20068;-72
2022/04/12 08:56:27;;;;;;;2.17;0.82;;;20.00;69.30;;;;;;5046943;28;20048;-75
2022/04/12 08:58:56;;;;;;;1.48;0.90;;;20.10;68.90;;;;;;5056762;28;20040;-71
2022/04/12 09:01:36;;;;;;;2.90;1.15;;;20.30;68.40;;;;;;5072196;28;20058;-73
2022/04/12 09:04:04;;;;;;;1.80;0.80;;;20.40;68.40;;;;;;5072571;28;20071;-72
2022/04/12 09:06:31;;;;;;;1.42;1.08;;;20.70;68.00;;;;;;5072573;28;20040;-72
2022/04/12 09:09:20;;;;;;;2.10;1.23;;;20.70;68.20;;;;;;5072647;28;20187;-71
2022/04/12 09:12:11;;;;;;;2.47;1.20;;;20.80;68.10;;;;;;5056309;28;20048;-73
2022/04/12 09:14:43;;;;;;;2.10;1.20;;;20.80;67.20;;;;;;5056760;28;20472;-73
2022/04/12 09:17:12;;;;;;;2.53;1.00;;;20.70;67.10;;;;;;5056369;28;20048;-75
2022/04/12 09:19:51;;;;;;;2.67;1.50;;;20.60;66.80;;;;;;5056582;28;20040;-72
2022/04/12 09:22:23;;;;;;;5.25;1.52;;;20.50;68.60;;;;;;5056173;28;20089;-72
2022/04/12 09:24:58;;;;;;;2.25;1.00;;;20.60;68.90;;;;;;5055192;28;20040;-72
2022/04/12 09:27:32;;;;;;;3.70;1.50;;;20.60;68.10;;;;;;5055590;28;20697;-71
2022/04/12 09:30:04;;;;;;;3.58;0.90;;;20.70;68.40;;;;;;5039661;28;20286;-72
2022/04/12 09:32:40;;;;;;;2.95;1.08;;;20.70;67.50;;;;;;5072077;28;20052;-73
2022/04/12 09:35:09;;;;;;;1.33;1.00;;;20.30;66.70;;;;;;5073427;28;20040;-75
2022/04/12 09:37:38;;;;;;;2.35;1.05;;;20.20;67.20;;;;;;5039425;28;20048;-72
2022/04/12 09:40:08;;;;;;;3.60;1.63;;;20.20;67.80;;;;;;5056201;28;20520;-74
2022/04/12 09:43:05;;;;;;;2.53;1.15;;;20.30;67.90;;;;;;5055702;28;20044;-73
2022/04/12 09:45:33;;;;;;;2.40;0.85;;;20.40;68.20;;;;;;5088204;28;20070;-73
2022/04/12 09:48:03;;;;;;;2.28;1.10;;;20.60;67.90;;;;;;5035664;28;20505;-74
2022/04/12 09:50:51;;;;;;;2.00;1.02;;;20.80;66.00;;;;;;5070168;28;20486;-72
2022/04/12 09:53:19;;;;;;;3.63;1.05;;;20.80;62.20;;;;;;5051988;28;20047;-74
2022/04/12 09:55:49;;;;;;;3.42;1.30;;;20.80;62.40;;;;;;5035734;28;20143;-72
2022/04/12 09:58:21;;;;;;;2.10;1.25;;;20.70;61.30;;;;;;5035757;28;20052;-72
2022/04/12 10:00:49;;;;;;;1.52;0.90;;;20.50;59.60;;;;;;5052023;28;20047;-73
2022/04/12 10:03:19;;;;;;;2.67;1.13;;;20.40;60.40;;;;;;5068939;28;20047;-72
2022/04/12 10:05:47;;;;;;;2.55;1.10;;;20.20;60.30;;;;;;5068938;28;20376;-72
2022/04/12 10:08:17;;;;;;;2.70;1.13;;;20.20;61.00;;;;;;5051752;28;20048;-73
2022/04/12 10:10:45;;;;;;;1.88;0.80;;;20.10;61.20;;;;;;5050934;28;20055;-73
2022/04/12 10:13:15;;;;;;;2.55;1.65;;;19.90;61.50;;;;;;5051733;28;20060;-73
2022/04/12 10:15:44;;;;;;;1.50;0.85;;;19.70;61.20;;;;;;5068863;28;20048;-73
2022/04/12 10:18:20;;;;;;;3.05;1.00;;;19.90;62.40;;;;;;5051947;28;20114;-73
2022/04/12 10:20:48;;;;;;;1.15;0.90;;;20.20;63.00;;;;;;5017911;28;20456;-73
2022/04/12 10:23:18;;;;;;;3.28;1.30;;;20.10;61.60;;;;;;5051520;28;20041;-75
2022/04/12 10:25:51;;;;;;;1.77;0.95;;;20.00;61.60;;;;;;5069072;28;20044;-73
2022/04/12 10:28:21;;;;;;;2.00;1.20;;;20.10;61.90;;;;;;5050859;28;20052;-74
2022/04/12 10:30:49;;;;;;;1.70;1.08;;;20.30;61.90;;;;;;5050242;28;20049;-74
2022/04/12 10:33:20;;;;;;;1.50;0.93;;;20.10;60.70;;;;;;5051155;28;20388;-72
2022/04/12 10:35:54;;;;;;;4.97;1.75;;;20.20;61.40;;;;;;5051158;28;20065;-74
2022/04/12 10:38:24;;;;;;;1.35;0.95;;;20.20;61.90;;;;;;5067957;28;20048;-74
2022/04/12 10:40:54;;;;;;;2.90;1.10;;;20.30;60.80;;;;;;5066186;28;20092;-72
2022/04/12 10:43:33;;;;;;;1.27;0.88;;;20.30;60.40;;;;;;5055695;28;20043;-73
2022/04/12 10:46:03;;;;;;;2.15;1.00;;;20.30;60.70;;;;;;5073947;28;20586;-72
2022/04/12 10:48:33;;;;;;;2.47;1.25;;;20.40;61.00;;;;;;5092525;28;20828;-73
2022/04/12 10:51:06;;;;;;;1.42;0.95;;;20.30;60.70;;;;;;5058397;28;20796;-72
2022/04/12 10:53:37;;;;;;;1.92;1.20;;;20.00;62.00;;;;;;5041238;28;20056;-73
2022/04/12 10:56:08;;;;;;;2.00;1.60;;;20.00;61.70;;;;;;5058126;28;20121;-73
2022/04/12 10:58:36;;;;;;;3.65;1.85;;;20.00;61.70;;;;;;5058019;28;20083;-72
2022/04/12 11:01:08;;;;;;;3.17;1.77;;;20.00;62.00;;;;;;5057284;28;20063;-73
2022/04/12 11:03:43;;;;;;;3.13;1.10;;;20.00;62.10;;;;;;5041215;28;20052;-72
2022/04/12 11:06:11;;;;;;;3.20;1.20;;;19.80;61.80;;;;;;5092510;28;20083;-72
2022/04/12 11:08:39;;;;;;;3.88;1.40;;;19.40;62.40;;;;;;5073763;28;20130;-76
2022/04/12 11:11:09;;;;;;;1.45;1.17;;;19.50;63.00;;;;;;5074136;28;20485;-73
2022/04/12 11:13:37;;;;;;;2.35;1.17;;;19.40;62.60;;;;;;5057333;28;20044;-73
2022/04/12 11:16:10;;;;;;;2.50;1.20;;;19.30;61.50;;;;;;5073776;28;20040;-72
2022/04/12 11:18:53;;;;;;;6.20;1.05;;;19.30;62.00;;;;;;5056459;28;20047;-71
2022/04/12 11:21:57;;;;;;;2.40;1.58;;;19.20;62.00;;;;;;5092619;28;20051;-72
2022/04/12 11:24:26;;;;;;;1.60;1.23;;;19.10;61.50;;;;;;5052122;28;20509;-73
2022/04/12 11:27:01;;;;;;;1.80;1.00;;;19.10;61.60;;;;;;5074278;28;20054;-72
2022/04/12 11:29:30;;;;;;;2.05;1.20;;;19.10;61.10;;;;;;5057266;28;20036;-73
2022/04/12 11:31:58;;;;;;;2.22;1.25;;;19.10;62.10;;;;;;5057367;28;20055;-73
2022/04/12 11:34:28;;;;;;;2.25;1.30;;;19.10;61.20;;;;;;5072214;28;20136;-74
2022/04/12 11:36:57;;;;;;;1.80;1.00;;;19.10;60.80;;;;;;5073881;28;20071;-75
2022/04/12 11:39:32;;;;;;;1.73;1.00;;;19.20;60.80;;;;;;5040876;28;20055;-75
2022/04/12 11:42:02;;;;;;;1.67;1.15;;;19.20;61.40;;;;;;5074237;28;20078;-72
2022/04/12 11:44:33;;;;;;;3.05;1.02;;;19.20;60.30;;;;;;5057382;28;20503;-72
2022/04/12 11:47:06;;;;;;;1.50;0.95;;;19.20;61.20;;;;;;5057277;28;20056;-73
2022/04/12 11:49:38;;;;;;;1.58;1.10;;;19.20;60.90;;;;;;5057092;28;20057;-71
2022/04/12 11:52:09;;;;;;;1.67;0.98;;;19.10;60.60;;;;;;5057478;28;20123;-72
2022/04/12 11:54:41;;;;;;;2.30;1.10;;;19.20;60.40;;;;;;5091186;28;20053;-72
2022/04/12 11:57:15;;;;;;;1.30;0.90;;;19.00;61.20;;;;;;5040791;28;20406;-73
2022/04/12 11:59:51;;;;;;;3.30;1.13;;;18.80;60.40;;;;;;5056948;28;20056;-72
2022/04/12 12:02:25;;;;;;;1.10;0.77;;;18.90;61.80;;;;;;5073976;28;20064;-71
2022/04/12 12:05:02;;;;;;;2.17;1.15;;;19.00;62.40;;;;;;5057298;28;20294;-72
2022/04/12 12:07:35;;;;;;;1.42;0.85;;;18.90;62.60;;;;;;5091409;28;20175;-71
2022/04/12 12:10:30;;;;;;;2.03;1.08;;;18.90;62.50;;;;;;5057108;28;20052;-72
2022/04/12 12:13:05;;;;;;;1.92;1.25;;;18.80;63.70;;;;;;5054609;28;20040;-72
2022/04/12 12:15:34;;;;;;;1.92;1.33;;;18.80;63.50;;;;;;5073620;28;20044;-73
2022/04/12 12:18:07;;;;;;;1.73;1.10;;;18.70;63.10;;;;;;5091732;28;20052;-73
2022/04/12 12:20:37;;;;;;;1.15;0.90;;;18.80;63.40;;;;;;5056587;28;20402;-71
2022/04/12 12:23:08;;;;;;;2.75;1.10;;;18.80;62.40;;;;;;5073185;28;20048;-72
2022/04/12 12:25:38;;;;;;;1.95;1.15;;;18.80;62.50;;;;;;5073540;28;20044;-72
2022/04/12 12:28:11;;;;;;;1.48;1.20;;;18.80;61.70;;;;;;5073250;28;20048;-72
2022/04/12 12:30:39;;;;;;;1.83;1.08;;;18.70;61.70;;;;;;5040479;28;20440;-74
2022/04/12 12:33:07;;;;;;;2.03;1.02;;;18.70;61.40;;;;;;5054915;28;20052;-71
2022/04/12 12:35:39;;;;;;;1.20;0.82;;;18.70;62.30;;;;;;5073272;28;20105;-71
2022/04/12 12:38:08;;;;;;;4.35;1.10;;;18.60;63.90;;;;;;5050358;28;20406;-71
2022/04/12 12:40:37;;;;;;;1.13;0.90;;;18.60;63.50;;;;;;5086674;28;20040;-72
2022/04/12 12:43:08;;;;;;;2.40;1.23;;;18.50;63.90;;;;;;5063421;28;20547;-74
2022/04/12 12:45:46;;;;;;;2.38;1.00;;;18.50;64.30;;;;;;5068041;28;20154;-72
2022/04/12 12:48:16;;;;;;;4.00;1.10;;;18.50;63.90;;;;;;5060632;28;20102;-75
2022/04/12 12:50:45;;;;;;;1.63;0.98;;;18.40;63.60;;;;;;5082950;28;20052;-76
2022/04/12 12:53:15;;;;;;;1.80;1.00;;;18.30;65.60;;;;;;5044765;28;20055;-71
2022/04/12 12:55:49;;;;;;;2.60;1.08;;;18.20;66.10;;;;;;5019691;28;20510;-71
2022/04/12 12:58:29;;;;;;;3.08;1.17;;;18.20;66.40;;;;;;5066130;28;20575;-71
2022/04/12 13:01:04;;;;;;;1.48;0.90;;;18.10;67.40;;;;;;5036397;28;20167;-71